Time;durP1;ratioP1;P1;durP2;ratioP2;P2;SDS_P1;SDS_P2;PMS_P1;PMS_P2;Temp;Humidity;BMP_temperature;BMP_pressure;BME280_temperature;BME280_humidity;BME280_pressure;Samples;Min_cycle;Max_cycle;Signal;HPM_P1;HPM_P2
2021/12/06 00:00:58;;;;;;;;;;;19.50;30.50;;;;;;482220;246;1185;-76
2021/12/06 00:02:59;;;;;;;;;;;19.50;30.50;;;;;;482257;246;1133;-76
2021/12/06 00:05:00;;;;;;;;;;;19.50;30.50;;;;;;482246;246;978;-76
2021/12/06 00:07:02;;;;;;;;;;;19.50;30.60;;;;;;482198;246;1198;-76
2021/12/06 00:09:03;;;;;;;;;;;19.50;30.60;;;;;;482198;246;1169;-76
2021/12/06 00:11:08;;;;;;;;;;;19.50;30.60;;;;;;482184;246;2176;-76
2021/12/06 00:13:06;;;;;;;;;;;19.50;30.50;;;;;;482309;246;1440;-76
2021/12/06 00:15:07;;;;;;;;;;;19.50;30.60;;;;;;482272;246;946;-76
2021/12/06 00:17:09;;;;;;;;;;;19.50;30.50;;;;;;482251;246;1234;-76
2021/12/06 00:19:10;;;;;;;;;;;19.60;30.50;;;;;;482301;246;948;-76
2021/12/06 00:21:11;;;;;;;;;;;19.50;30.50;;;;;;482227;246;1056;-76
2021/12/06 00:23:13;;;;;;;;;;;19.60;30.50;;;;;;482250;246;1065;-76
2021/12/06 00:25:15;;;;;;;;;;;19.50;30.50;;;;;;482293;246;1195;-76
2021/12/06 00:27:15;;;;;;;;;;;19.50;30.60;;;;;;482243;246;1421;-76
2021/12/06 00:29:18;;;;;;;;;;;19.50;30.50;;;;;;482247;246;922;-76
2021/12/06 00:31:18;;;;;;;;;;;19.50;30.50;;;;;;482141;246;2204;-76
2021/12/06 00:33:19;;;;;;;;;;;19.60;30.50;;;;;;482374;246;1068;-76
2021/12/06 00:35:23;;;;;;;;;;;19.50;30.50;;;;;;482212;246;975;-75
2021/12/06 00:37:29;;;;;;;;;;;19.50;30.60;;;;;;482112;243;1459;-76
2021/12/06 00:39:24;;;;;;;;;;;19.60;30.60;;;;;;482326;246;1417;-76
2021/12/06 00:41:25;;;;;;;;;;;19.60;30.50;;;;;;482220;246;1168;-76
2021/12/06 00:43:26;;;;;;;;;;;19.50;30.50;;;;;;482287;246;1141;-76
2021/12/06 00:45:28;;;;;;;;;;;19.50;30.60;;;;;;482209;246;1147;-76
2021/12/06 00:47:29;;;;;;;;;;;19.50;30.60;;;;;;482305;246;1198;-76
2021/12/06 00:49:30;;;;;;;;;;;19.40;30.60;;;;;;482346;246;915;-76
2021/12/06 00:51:32;;;;;;;;;;;19.50;30.60;;;;;;482171;240;2184;-76
2021/12/06 00:53:33;;;;;;;;;;;19.50;30.60;;;;;;482338;246;1158;-76
2021/12/06 00:55:34;;;;;;;;;;;19.50;30.60;;;;;;482238;246;1173;-76
2021/12/06 00:57:36;;;;;;;;;;;19.40;30.70;;;;;;482117;244;1230;-76
2021/12/06 00:59:37;;;;;;;;;;;19.40;30.70;;;;;;482247;246;1094;-76
2021/12/06 01:01:38;;;;;;;;;;;19.50;30.80;;;;;;482058;246;1270;-76
2021/12/06 01:03:40;;;;;;;;;;;19.50;30.70;;;;;;482287;246;1153;-76
2021/12/06 01:05:41;;;;;;;;;;;19.50;30.80;;;;;;482212;246;1052;-76
2021/12/06 01:07:42;;;;;;;;;;;19.40;30.70;;;;;;482141;246;1095;-76
2021/12/06 01:09:44;;;;;;;;;;;19.50;30.70;;;;;;482229;246;1155;-76
2021/12/06 01:11:45;;;;;;;;;;;19.40;30.70;;;;;;482226;246;2201;-76
2021/12/06 01:13:46;;;;;;;;;;;19.50;30.80;;;;;;482273;246;1155;-76
2021/12/06 01:15:48;;;;;;;;;;;19.40;30.70;;;;;;482199;246;1226;-76
2021/12/06 01:17:49;;;;;;;;;;;19.40;30.70;;;;;;482305;246;1078;-76
2021/12/06 01:19:51;;;;;;;;;;;19.40;30.80;;;;;;482279;246;1093;-76
2021/12/06 01:22:04;;;;;;;;;;;19.30;30.80;;;;;;482178;246;1210;-76
2021/12/06 01:23:57;;;;;;;;;;;19.40;30.90;;;;;;482249;246;1396;-76
2021/12/06 01:26:11;;;;;;;;;;;19.40;30.80;;;;;;482136;246;1336;-76
2021/12/06 01:28:30;;;;;;;;;;;19.40;30.80;;;;;;482301;246;1441;-76
2021/12/06 01:30:32;;;;;;;;;;;19.40;30.80;;;;;;482283;246;1431;-76
2021/12/06 01:32:59;;;;;;;;;;;19.40;30.70;;;;;;482099;246;2129;-76
2021/12/06 01:39:16;;;;;;;;;;;19.40;30.80;;;;;;482221;247;959;-76
2021/12/06 01:41:18;;;;;;;;;;;19.50;30.80;;;;;;482189;246;1261;-76
2021/12/06 01:43:19;;;;;;;;;;;19.40;30.70;;;;;;482187;246;1477;-76
2021/12/06 01:45:20;;;;;;;;;;;19.50;30.80;;;;;;482227;246;1231;-76
2021/12/06 01:47:21;;;;;;;;;;;19.50;30.80;;;;;;482251;246;1081;-76
2021/12/06 01:49:23;;;;;;;;;;;19.50;30.80;;;;;;482269;246;1002;-76
2021/12/06 01:51:24;;;;;;;;;;;19.40;30.90;;;;;;482134;246;2343;-76
2021/12/06 01:53:25;;;;;;;;;;;19.50;30.90;;;;;;482238;246;1114;-76
2021/12/06 01:55:27;;;;;;;;;;;19.40;30.80;;;;;;482240;246;1173;-76
2021/12/06 01:57:28;;;;;;;;;;;19.40;30.90;;;;;;482226;246;1144;-76
2021/12/06 01:59:29;;;;;;;;;;;19.50;30.90;;;;;;482265;246;935;-76
2021/12/06 02:01:31;;;;;;;;;;;19.50;30.80;;;;;;482198;246;999;-76
2021/12/06 02:03:32;;;;;;;;;;;19.50;30.80;;;;;;482307;246;1169;-75
2021/12/06 02:05:33;;;;;;;;;;;19.50;30.90;;;;;;482252;246;1107;-76
2021/12/06 02:07:35;;;;;;;;;;;19.50;30.90;;;;;;482230;246;1155;-76
2021/12/06 02:09:36;;;;;;;;;;;19.50;30.90;;;;;;482284;246;958;-76
2021/12/06 02:11:39;;;;;;;;;;;19.50;30.80;;;;;;482255;246;2158;-76
2021/12/06 02:13:45;;;;;;;;;;;19.50;30.80;;;;;;482261;246;1470;-76
2021/12/06 02:15:45;;;;;;;;;;;19.50;30.90;;;;;;482193;246;1408;-76
2021/12/06 02:17:52;;;;;;;;;;;19.50;30.90;;;;;;482164;246;1332;-76
2021/12/06 02:19:45;;;;;;;;;;;19.40;31.00;;;;;;482347;246;1329;-76
2021/12/06 02:21:45;;;;;;;;;;;19.40;31.10;;;;;;482158;246;1401;-76
2021/12/06 02:23:47;;;;;;;;;;;19.40;31.10;;;;;;482243;246;1040;-76
2021/12/06 02:25:48;;;;;;;;;;;19.40;31.10;;;;;;482190;246;1180;-76
2021/12/06 02:27:49;;;;;;;;;;;19.30;31.10;;;;;;482161;246;1243;-76
2021/12/06 02:29:51;;;;;;;;;;;19.40;31.10;;;;;;482248;246;1023;-76
2021/12/06 02:31:52;;;;;;;;;;;19.40;31.10;;;;;;482112;246;2189;-76
2021/12/06 02:33:53;;;;;;;;;;;19.40;31.10;;;;;;482275;246;1012;-76
2021/12/06 02:35:55;;;;;;;;;;;19.40;31.10;;;;;;482304;246;1233;-76
2021/12/06 02:37:56;;;;;;;;;;;19.40;31.10;;;;;;482237;246;1106;-76
2021/12/06 02:39:57;;;;;;;;;;;19.40;31.10;;;;;;482236;246;1141;-76
2021/12/06 02:42:00;;;;;;;;;;;19.30;31.10;;;;;;482039;246;1199;-76
2021/12/06 02:44:00;;;;;;;;;;;19.30;31.20;;;;;;482264;246;1506;-76
2021/12/06 02:46:01;;;;;;;;;;;19.30;31.20;;;;;;482125;246;1221;-76
2021/12/06 02:48:03;;;;;;;;;;;19.30;31.20;;;;;;482174;246;1066;-76
2021/12/06 02:50:08;;;;;;;;;;;19.40;31.20;;;;;;482254;246;942;-76
2021/12/06 02:52:06;;;;;;;;;;;19.50;31.10;;;;;;482045;246;2201;-76
2021/12/06 02:54:07;;;;;;;;;;;19.40;31.10;;;;;;482232;246;921;-76
2021/12/06 02:56:18;;;;;;;;;;;19.40;31.10;;;;;;482193;246;1208;-76
2021/12/06 02:58:15;;;;;;;;;;;19.30;31.20;;;;;;482221;246;1412;-76
2021/12/06 03:00:15;;;;;;;;;;;19.40;31.20;;;;;;482155;246;1416;-76
2021/12/06 03:02:16;;;;;;;;;;;19.40;31.20;;;;;;482128;246;1115;-76
2021/12/06 03:04:18;;;;;;;;;;;19.30;31.20;;;;;;482265;246;1039;-76
2021/12/06 03:06:19;;;;;;;;;;;19.40;31.20;;;;;;482211;246;1216;-76
2021/12/06 03:08:20;;;;;;;;;;;19.40;31.20;;;;;;482291;246;1051;-76
2021/12/06 03:10:22;;;;;;;;;;;19.40;31.10;;;;;;482337;246;1276;-76
2021/12/06 03:12:23;;;;;;;;;;;19.40;31.20;;;;;;482154;246;2180;-76
2021/12/06 03:14:24;;;;;;;;;;;19.40;31.30;;;;;;482249;246;1137;-76
2021/12/06 03:16:26;;;;;;;;;;;19.40;31.30;;;;;;482174;240;1184;-76
2021/12/06 03:18:27;;;;;;;;;;;19.40;31.20;;;;;;482244;246;1112;-76
2021/12/06 03:20:28;;;;;;;;;;;19.40;31.20;;;;;;482283;246;948;-76
2021/12/06 03:22:30;;;;;;;;;;;19.40;31.20;;;;;;482209;246;1301;-76
2021/12/06 03:24:31;;;;;;;;;;;19.40;31.30;;;;;;482299;246;926;-76
2021/12/06 03:26:33;;;;;;;;;;;19.40;31.30;;;;;;482129;246;1165;-76
2021/12/06 03:28:34;;;;;;;;;;;19.40;31.30;;;;;;482337;246;1129;-76
2021/12/06 03:30:35;;;;;;;;;;;19.30;31.40;;;;;;482199;246;963;-76
2021/12/06 03:32:36;;;;;;;;;;;19.40;31.30;;;;;;482236;246;2109;-76
2021/12/06 03:34:38;;;;;;;;;;;19.40;31.40;;;;;;482203;246;963;-76
2021/12/06 03:36:39;;;;;;;;;;;19.40;31.30;;;;;;482170;246;1099;-76
2021/12/06 03:38:40;;;;;;;;;;;19.30;31.30;;;;;;482237;246;1254;-76
2021/12/06 03:40:42;;;;;;;;;;;19.40;31.30;;;;;;482165;246;1164;-76
2021/12/06 03:42:43;;;;;;;;;;;19.30;31.40;;;;;;482182;246;1174;-76
2021/12/06 03:44:44;;;;;;;;;;;19.30;31.50;;;;;;482295;246;949;-75
2021/12/06 03:46:46;;;;;;;;;;;19.30;31.40;;;;;;482128;246;1088;-76
2021/12/06 03:48:47;;;;;;;;;;;19.30;31.30;;;;;;482275;246;1223;-76
2021/12/06 03:50:49;;;;;;;;;;;19.40;31.40;;;;;;482206;246;1093;-76
2021/12/06 03:52:50;;;;;;;;;;;19.40;31.30;;;;;;482220;246;2129;-76
2021/12/06 03:54:51;;;;;;;;;;;19.40;31.30;;;;;;482234;246;948;-76
2021/12/06 03:56:52;;;;;;;;;;;19.40;31.30;;;;;;482190;246;1181;-76
2021/12/06 03:58:54;;;;;;;;;;;19.50;31.20;;;;;;482292;246;1016;-76
2021/12/06 04:00:55;;;;;;;;;;;19.40;31.20;;;;;;482263;246;1216;-76
2021/12/06 04:02:57;;;;;;;;;;;19.40;31.30;;;;;;482236;246;1083;-76
2021/12/06 04:04:58;;;;;;;;;;;19.40;31.30;;;;;;482297;246;1036;-76
2021/12/06 04:06:59;;;;;;;;;;;19.40;31.30;;;;;;482143;246;1203;-76
2021/12/06 04:09:01;;;;;;;;;;;19.40;31.30;;;;;;482215;246;958;-76
2021/12/06 04:11:02;;;;;;;;;;;19.40;31.40;;;;;;482286;246;1250;-76
2021/12/06 04:13:03;;;;;;;;;;;19.30;31.50;;;;;;482276;246;2213;-76
2021/12/06 04:15:05;;;;;;;;;;;19.30;31.50;;;;;;482292;246;963;-76
2021/12/06 04:17:06;;;;;;;;;;;19.40;31.50;;;;;;482092;246;1152;-76
2021/12/06 04:19:07;;;;;;;;;;;19.40;31.50;;;;;;482289;246;1114;-76
2021/12/06 04:21:09;;;;;;;;;;;19.40;31.40;;;;;;482213;246;1255;-76
2021/12/06 04:23:10;;;;;;;;;;;19.40;31.30;;;;;;482229;246;1189;-76
2021/12/06 04:25:14;;;;;;;;;;;19.40;31.30;;;;;;482276;246;1186;-76
2021/12/06 04:27:15;;;;;;;;;;;19.50;31.30;;;;;;482251;246;1392;-76
2021/12/06 04:29:16;;;;;;;;;;;19.50;31.30;;;;;;482367;246;1391;-75
2021/12/06 04:31:16;;;;;;;;;;;19.50;31.30;;;;;;482215;242;1659;-76
2021/12/06 04:33:18;;;;;;;;;;;19.50;31.30;;;;;;482267;246;2244;-76
2021/12/06 04:35:19;;;;;;;;;;;19.50;31.30;;;;;;482215;246;945;-76
2021/12/06 04:37:20;;;;;;;;;;;19.50;31.40;;;;;;482160;246;1236;-76
2021/12/06 04:39:22;;;;;;;;;;;19.50;31.30;;;;;;482289;246;961;-76
2021/12/06 04:41:23;;;;;;;;;;;19.50;31.30;;;;;;482195;246;1273;-76
2021/12/06 04:43:24;;;;;;;;;;;19.50;31.20;;;;;;482165;246;1071;-76
2021/12/06 04:45:26;;;;;;;;;;;19.50;31.30;;;;;;482194;246;1132;-76
2021/12/06 04:47:27;;;;;;;;;;;19.50;31.20;;;;;;482134;246;1435;-76
2021/12/06 04:49:29;;;;;;;;;;;19.50;31.20;;;;;;482278;246;975;-76
2021/12/06 04:51:30;;;;;;;;;;;19.50;31.20;;;;;;482273;243;1456;-76
2021/12/06 04:53:36;;;;;;;;;;;19.50;31.20;;;;;;482216;246;2193;-76
2021/12/06 04:55:33;;;;;;;;;;;19.50;31.20;;;;;;482190;246;1488;-76
2021/12/06 04:57:34;;;;;;;;;;;19.50;31.30;;;;;;482066;246;1224;-76
2021/12/06 04:59:35;;;;;;;;;;;19.40;31.30;;;;;;482192;246;956;-76
2021/12/06 05:01:37;;;;;;;;;;;19.50;31.40;;;;;;482109;246;1325;-75
2021/12/06 05:03:38;;;;;;;;;;;19.50;31.30;;;;;;482266;246;1080;-76
2021/12/06 05:05:39;;;;;;;;;;;19.50;31.30;;;;;;482228;246;1187;-76
2021/12/06 05:07:41;;;;;;;;;;;19.50;31.30;;;;;;482233;246;1113;-76
2021/12/06 05:09:42;;;;;;;;;;;19.50;31.40;;;;;;482225;246;980;-76
2021/12/06 05:11:43;;;;;;;;;;;19.50;31.40;;;;;;482143;238;1195;-76
2021/12/06 05:13:45;;;;;;;;;;;19.60;31.40;;;;;;482208;246;2126;-77
2021/12/06 05:15:46;;;;;;;;;;;19.50;31.30;;;;;;482182;246;1085;-76
2021/12/06 05:17:47;;;;;;;;;;;19.50;31.30;;;;;;482221;246;1099;-76
2021/12/06 05:19:49;;;;;;;;;;;19.50;31.30;;;;;;482212;246;965;-76
2021/12/06 05:21:50;;;;;;;;;;;19.50;31.20;;;;;;482126;246;1094;-76
2021/12/06 05:23:51;;;;;;;;;;;19.40;31.30;;;;;;482209;246;934;-76
2021/12/06 05:25:52;;;;;;;;;;;19.60;31.40;;;;;;482165;246;1193;-76
2021/12/06 05:27:54;;;;;;;;;;;19.50;31.30;;;;;;482177;246;1166;-76
2021/12/06 05:29:58;;;;;;;;;;;19.50;31.20;;;;;;482182;246;1016;-76
2021/12/06 05:31:59;;;;;;;;;;;19.60;31.30;;;;;;482177;246;1404;-76
2021/12/06 05:34:03;;;;;;;;;;;19.50;31.30;;;;;;482282;246;2129;-76
2021/12/06 05:36:00;;;;;;;;;;;19.60;31.30;;;;;;482155;243;1419;-76
2021/12/06 05:38:01;;;;;;;;;;;19.60;31.30;;;;;;482141;246;1173;-76
2021/12/06 05:40:03;;;;;;;;;;;19.60;31.30;;;;;;482182;246;959;-76
2021/12/06 05:42:04;;;;;;;;;;;19.50;31.30;;;;;;482015;246;1107;-76
2021/12/06 05:44:05;;;;;;;;;;;19.60;31.30;;;;;;482124;246;945;-76
2021/12/06 05:46:07;;;;;;;;;;;19.60;31.30;;;;;;482048;239;1343;-76
2021/12/06 05:48:08;;;;;;;;;;;19.50;31.20;;;;;;482044;246;1086;-76
2021/12/06 05:50:09;;;;;;;;;;;19.50;31.30;;;;;;482077;246;1059;-76
2021/12/06 05:52:11;;;;;;;;;;;19.50;31.30;;;;;;482043;246;1216;-76
2021/12/06 05:54:12;;;;;;;;;;;19.60;31.30;;;;;;482016;246;2181;-76
2021/12/06 05:56:13;;;;;;;;;;;19.50;31.20;;;;;;482013;246;1124;-76
2021/12/06 05:58:14;;;;;;;;;;;19.60;31.30;;;;;;482163;246;1130;-76
2021/12/06 06:00:16;;;;;;;;;;;19.60;31.30;;;;;;482024;246;1072;-76
2021/12/06 06:02:17;;;;;;;;;;;19.60;31.20;;;;;;482099;246;1203;-76
2021/12/06 06:04:18;;;;;;;;;;;19.60;31.30;;;;;;482082;246;1188;-76
2021/12/06 06:06:20;;;;;;;;;;;19.60;31.30;;;;;;482028;246;1208;-76
2021/12/06 06:08:21;;;;;;;;;;;19.60;31.30;;;;;;482000;246;1090;-77
2021/12/06 06:10:22;;;;;;;;;;;19.60;31.30;;;;;;482050;246;1025;-76
2021/12/06 06:12:24;;;;;;;;;;;19.60;31.30;;;;;;482139;246;1076;-76
2021/12/06 06:14:25;;;;;;;;;;;19.50;31.30;;;;;;482059;246;2184;-76
2021/12/06 06:16:31;;;;;;;;;;;19.50;31.40;;;;;;481954;246;1202;-76
2021/12/06 06:18:28;;;;;;;;;;;19.50;31.50;;;;;;482045;246;1369;-76
2021/12/06 06:20:29;;;;;;;;;;;19.50;31.50;;;;;;482009;246;1029;-76
2021/12/06 06:22:30;;;;;;;;;;;19.50;31.40;;;;;;481964;246;1237;-76
2021/12/06 06:24:32;;;;;;;;;;;19.50;31.40;;;;;;481868;246;1025;-76
2021/12/06 06:26:33;;;;;;;;;;;19.60;31.30;;;;;;481819;246;1222;-76
2021/12/06 06:28:35;;;;;;;;;;;19.60;31.30;;;;;;481790;246;1178;-76
2021/12/06 06:30:36;;;;;;;;;;;19.60;31.30;;;;;;481913;246;1111;-76
2021/12/06 06:32:37;;;;;;;;;;;19.60;31.30;;;;;;481874;246;1121;-76
2021/12/06 06:34:39;;;;;;;;;;;19.60;31.40;;;;;;481945;246;2192;-76
2021/12/06 06:36:40;;;;;;;;;;;19.60;31.30;;;;;;481850;246;1212;-76
2021/12/06 06:38:41;;;;;;;;;;;19.60;31.20;;;;;;481760;246;1046;-76
2021/12/06 06:40:43;;;;;;;;;;;19.60;31.30;;;;;;481719;246;972;-76
2021/12/06 06:42:44;;;;;;;;;;;19.60;31.30;;;;;;481751;246;1121;-76
2021/12/06 06:44:45;;;;;;;;;;;19.60;31.30;;;;;;481826;246;1175;-76
2021/12/06 06:46:46;;;;;;;;;;;19.60;31.30;;;;;;481741;246;1194;-76
2021/12/06 06:48:48;;;;;;;;;;;19.60;31.30;;;;;;481721;246;978;-76
2021/12/06 06:50:49;;;;;;;;;;;19.60;31.20;;;;;;481809;246;987;-76
2021/12/06 06:52:51;;;;;;;;;;;19.60;31.20;;;;;;481890;246;1076;-76
2021/12/06 06:54:52;;;;;;;;;;;19.60;31.20;;;;;;481796;246;2238;-76
2021/12/06 06:56:53;;;;;;;;;;;19.60;31.30;;;;;;481852;246;1197;-76
2021/12/06 06:58:55;;;;;;;;;;;19.60;31.30;;;;;;481829;246;1185;-76
2021/12/06 07:00:56;;;;;;;;;;;19.70;31.30;;;;;;481742;246;1459;-76
2021/12/06 07:02:57;;;;;;;;;;;19.70;31.30;;;;;;481710;246;1220;-76
2021/12/06 07:04:59;;;;;;;;;;;19.60;31.20;;;;;;481799;246;1001;-76
2021/12/06 07:07:00;;;;;;;;;;;19.60;31.30;;;;;;481802;246;1155;-76
2021/12/06 07:09:01;;;;;;;;;;;19.60;31.20;;;;;;481800;246;1105;-76
2021/12/06 07:11:05;;;;;;;;;;;19.60;31.20;;;;;;481741;246;1294;-76
2021/12/06 07:13:08;;;;;;;;;;;19.60;31.10;;;;;;481774;246;1219;-76
2021/12/06 07:15:06;;;;;;;;;;;19.60;31.20;;;;;;481625;246;1416;-76
2021/12/06 07:17:07;;;;;;;;;;;19.60;31.20;;;;;;481854;246;1150;-76
2021/12/06 07:19:08;;;;;;;;;;;19.60;31.10;;;;;;481721;246;991;-76
2021/12/06 07:21:09;;;;;;;;;;;19.60;31.10;;;;;;481685;246;1206;-76
2021/12/06 07:23:11;;;;;;;;;;;19.60;31.10;;;;;;481816;246;1077;-76
2021/12/06 07:25:12;;;;;;;;;;;19.60;31.10;;;;;;481681;246;1103;-76
2021/12/06 07:27:13;;;;;;;;;;;19.60;31.20;;;;;;481728;246;1480;-76
2021/12/06 07:29:15;;;;;;;;;;;19.50;31.20;;;;;;481697;246;1224;-76
2021/12/06 07:31:16;;;;;;;;;;;19.50;31.20;;;;;;481545;246;1147;-76
2021/12/06 07:33:18;;;;;;;;;;;19.70;31.30;;;;;;481510;246;2189;-76
2021/12/06 07:35:19;;;;;;;;;;;19.60;31.10;;;;;;481652;246;971;-76
2021/12/06 07:37:20;;;;;;;;;;;19.70;31.20;;;;;;481622;246;1102;-76
2021/12/06 07:39:22;;;;;;;;;;;19.60;31.20;;;;;;481741;246;1082;-76
2021/12/06 07:41:23;;;;;;;;;;;19.60;31.20;;;;;;481726;244;1189;-76
2021/12/06 07:43:24;;;;;;;;;;;19.60;31.20;;;;;;481630;246;1368;-76
2021/12/06 07:45:26;;;;;;;;;;;19.70;31.20;;;;;;481603;246;933;-76
2021/12/06 07:47:27;;;;;;;;;;;19.70;31.20;;;;;;481607;246;1086;-76
2021/12/06 07:49:28;;;;;;;;;;;19.80;31.10;;;;;;481554;246;1007;-76
2021/12/06 07:51:30;;;;;;;;;;;19.70;31.10;;;;;;481685;246;1203;-76
2021/12/06 07:53:31;;;;;;;;;;;19.70;31.10;;;;;;481587;246;2197;-76
2021/12/06 07:55:34;;;;;;;;;;;19.70;31.20;;;;;;481675;246;1077;-76
2021/12/06 07:57:34;;;;;;;;;;;19.70;31.20;;;;;;481602;246;1360;-76
2021/12/06 07:59:35;;;;;;;;;;;19.70;31.20;;;;;;481594;246;1140;-76
2021/12/06 08:01:37;;;;;;;;;;;19.70;31.20;;;;;;481485;246;1138;-76
2021/12/06 08:03:38;;;;;;;;;;;19.70;31.20;;;;;;481550;246;1032;-76
2021/12/06 08:05:39;;;;;;;;;;;19.70;31.20;;;;;;481545;246;1386;-76
2021/12/06 08:07:40;;;;;;;;;;;19.70;31.20;;;;;;481733;246;1099;-76
2021/12/06 08:09:42;;;;;;;;;;;19.70;31.20;;;;;;481593;246;989;-76
2021/12/06 08:11:43;;;;;;;;;;;19.60;31.20;;;;;;481502;246;1185;-76
2021/12/06 08:13:44;;;;;;;;;;;19.70;31.20;;;;;;481581;246;2185;-76
2021/12/06 08:15:46;;;;;;;;;;;19.60;31.20;;;;;;481407;246;1187;-76
2021/12/06 08:17:47;;;;;;;;;;;19.70;31.20;;;;;;481635;246;1197;-76
2021/12/06 08:19:48;;;;;;;;;;;19.60;31.20;;;;;;481501;246;1168;-60
2021/12/06 08:21:50;;;;;;;;;;;20.40;30.30;;;;;;481428;246;1395;-60
2021/12/06 08:23:51;;;;;;;;;;;21.60;29.10;;;;;;481576;246;1306;-58
2021/12/06 08:25:52;;;;;;;;;;;22.00;28.70;;;;;;481438;246;1198;-61
2021/12/06 08:27:54;;;;;;;;;;;22.00;28.60;;;;;;481622;246;1103;-61
2021/12/06 08:29:55;;;;;;;;;;;22.00;28.60;;;;;;481459;246;1160;-61
2021/12/06 08:31:57;;;;;;;;;;;22.10;28.60;;;;;;481656;246;1207;-58
2021/12/06 08:33:58;;;;;;;;;;;22.10;28.60;;;;;;481581;246;2188;-61
2021/12/06 08:35:59;;;;;;;;;;;22.10;28.60;;;;;;481454;246;1160;-61
2021/12/06 08:38:01;;;;;;;;;;;22.10;28.60;;;;;;481965;246;1268;-61
2021/12/06 08:40:02;;;;;;;;;;;22.10;28.60;;;;;;481714;246;999;-60
2021/12/06 08:42:03;;;;;;;;;;;22.10;28.60;;;;;;481598;246;1171;-61
2021/12/06 08:44:04;;;;;;;;;;;22.10;28.60;;;;;;481595;246;1167;-61
2021/12/06 08:46:06;;;;;;;;;;;22.10;28.60;;;;;;481427;246;1298;-61
2021/12/06 08:48:07;;;;;;;;;;;22.10;28.60;;;;;;481365;246;1251;-61
2021/12/06 08:50:08;;;;;;;;;;;22.10;28.60;;;;;;481322;246;1118;-60
2021/12/06 08:52:10;;;;;;;;;;;22.20;28.50;;;;;;481246;246;1275;-61
2021/12/06 08:54:12;;;;;;;;;;;22.20;28.60;;;;;;481407;246;2188;-61
2021/12/06 08:56:13;;;;;;;;;;;22.20;28.60;;;;;;481578;246;1239;-61
2021/12/06 08:58:15;;;;;;;;;;;22.20;28.50;;;;;;481615;246;1067;-62
2021/12/06 09:00:16;;;;;;;;;;;22.20;28.50;;;;;;481652;246;1107;-61
2021/12/06 09:02:17;;;;;;;;;;;22.20;28.50;;;;;;481615;246;1166;-61
2021/12/06 09:04:19;;;;;;;;;;;22.10;28.60;;;;;;481634;246;1076;-61
2021/12/06 09:06:20;;;;;;;;;;;22.10;28.60;;;;;;481423;246;1126;-60
2021/12/06 09:08:23;;;;;;;;;;;22.10;28.60;;;;;;481488;246;1102;-60
2021/12/06 09:10:23;;;;;;;;;;;22.10;28.60;;;;;;481531;246;1240;-60
2021/12/06 09:12:24;;;;;;;;;;;22.20;28.60;;;;;;481390;246;1099;-64
2021/12/06 09:14:28;;;;;;;;;;;22.30;28.50;;;;;;481400;246;2175;-62
2021/12/06 09:16:27;;;;;;;;;;;22.20;28.60;;;;;;481416;246;2008;-60
2021/12/06 09:18:30;;;;;;;;;;;22.20;28.60;;;;;;481540;246;999;-62
2021/12/06 09:20:31;;;;;;;;;;;22.20;28.60;;;;;;481508;246;1368;-62
2021/12/06 09:22:32;;;;;;;;;;;22.20;28.60;;;;;;481576;246;1342;-60
2021/12/06 09:24:34;;;;;;;;;;;22.20;28.60;;;;;;481575;246;1048;-62
2021/12/06 09:26:35;;;;;;;;;;;22.20;28.50;;;;;;481529;246;1179;-67
2021/12/06 09:28:36;;;;;;;;;;;22.20;28.60;;;;;;481505;246;993;-78
2021/12/06 09:30:37;;;;;;;;;;;21.70;28.90;;;;;;481366;246;1265;-77
2021/12/06 09:32:39;;;;;;;;;;;21.20;29.60;;;;;;481443;246;1154;-77
2021/12/06 09:34:43;;;;;;;;;;;20.70;30.00;;;;;;481451;246;2129;-77
2021/12/06 09:36:41;;;;;;;;;;;20.50;30.50;;;;;;481516;246;1458;-77
2021/12/06 09:38:44;;;;;;;;;;;20.40;30.70;;;;;;481447;246;993;-77
2021/12/06 09:40:44;;;;;;;;;;;20.30;30.70;;;;;;481438;246;1330;-77
2021/12/06 09:42:45;;;;;;;;;;;20.30;30.80;;;;;;481533;246;1181;-77
2021/12/06 09:44:47;;;;;;;;;;;20.20;30.90;;;;;;481508;246;1083;-78
2021/12/06 09:46:48;;;;;;;;;;;20.20;31.00;;;;;;481464;246;1154;-77
2021/12/06 09:48:49;;;;;;;;;;;20.20;31.00;;;;;;481491;246;1104;-77
2021/12/06 09:50:51;;;;;;;;;;;20.10;31.00;;;;;;481432;246;1226;-76
2021/12/06 09:52:52;;;;;;;;;;;20.30;31.10;;;;;;481431;246;1201;-76
2021/12/06 09:54:55;;;;;;;;;;;20.20;31.00;;;;;;481455;246;2185;-76
2021/12/06 09:56:55;;;;;;;;;;;20.20;31.00;;;;;;481445;246;1309;-76
2021/12/06 09:58:56;;;;;;;;;;;20.30;31.00;;;;;;481328;246;1136;-76
2021/12/06 10:00:57;;;;;;;;;;;20.40;30.80;;;;;;481353;246;1172;-76
2021/12/06 10:02:59;;;;;;;;;;;20.30;30.80;;;;;;481553;246;1035;-76
2021/12/06 10:05:00;;;;;;;;;;;20.30;31.00;;;;;;481583;246;1312;-76
2021/12/06 10:07:01;;;;;;;;;;;20.30;31.00;;;;;;481354;246;1209;-76
2021/12/06 10:09:03;;;;;;;;;;;20.30;31.00;;;;;;481485;246;1039;-76
2021/12/06 10:11:04;;;;;;;;;;;20.30;30.90;;;;;;481495;246;1275;-76
2021/12/06 10:13:05;;;;;;;;;;;20.40;30.80;;;;;;481472;246;1071;-76
2021/12/06 10:15:07;;;;;;;;;;;20.40;30.80;;;;;;481387;246;2136;-76
2021/12/06 10:17:08;;;;;;;;;;;20.40;30.70;;;;;;481386;246;1134;-76
2021/12/06 10:19:09;;;;;;;;;;;20.50;30.70;;;;;;481308;246;1033;-76
2021/12/06 10:21:11;;;;;;;;;;;20.40;30.70;;;;;;481352;246;1165;-76
2021/12/06 10:23:12;;;;;;;;;;;20.40;30.70;;;;;;481451;246;1080;-76
2021/12/06 10:25:13;;;;;;;;;;;20.60;30.60;;;;;;481386;246;1056;-76
2021/12/06 10:27:15;;;;;;;;;;;20.50;30.70;;;;;;481447;246;1237;-76
2021/12/06 10:29:20;;;;;;;;;;;20.60;30.60;;;;;;481471;246;1016;-78
2021/12/06 10:31:18;;;;;;;;;;;20.60;30.60;;;;;;481406;246;1407;-76
2021/12/06 10:33:19;;;;;;;;;;;20.90;30.10;;;;;;481282;246;1071;-76
2021/12/06 10:35:21;;;;;;;;;;;20.60;30.40;;;;;;481224;246;2181;-76
2021/12/06 10:37:22;;;;;;;;;;;20.50;30.50;;;;;;481216;246;1271;-76
2021/12/06 10:39:24;;;;;;;;;;;20.30;30.80;;;;;;481279;246;1087;-76
2021/12/06 10:41:25;;;;;;;;;;;20.40;30.80;;;;;;481275;246;1220;-76
2021/12/06 10:43:27;;;;;;;;;;;20.40;30.70;;;;;;481361;246;1181;-76
2021/12/06 10:45:28;;;;;;;;;;;20.40;30.80;;;;;;481348;246;1214;-76
2021/12/06 10:47:29;;;;;;;;;;;20.50;30.80;;;;;;481354;246;1100;-74
2021/12/06 10:49:31;;;;;;;;;;;20.50;30.80;;;;;;481266;246;1151;-74
2021/12/06 10:51:32;;;;;;;;;;;20.30;31.00;;;;;;481158;246;1221;-74
2021/12/06 10:53:36;;;;;;;;;;;20.20;31.20;;;;;;481329;246;1116;-75
2021/12/06 10:55:35;;;;;;;;;;;20.10;31.40;;;;;;481245;246;2197;-74
2021/12/06 10:57:36;;;;;;;;;;;20.00;31.40;;;;;;481207;246;1052;-74
2021/12/06 10:59:37;;;;;;;;;;;20.00;31.60;;;;;;481080;246;1022;-75
2021/12/06 11:01:39;;;;;;;;;;;20.10;31.60;;;;;;481291;246;1468;-74
2021/12/06 11:03:41;;;;;;;;;;;19.90;31.60;;;;;;481359;246;1136;-74
2021/12/06 11:05:44;;;;;;;;;;;19.90;31.80;;;;;;481346;246;1420;-73
2021/12/06 11:07:43;;;;;;;;;;;19.80;31.80;;;;;;481368;246;1446;-75
2021/12/06 11:09:46;;;;;;;;;;;19.80;31.90;;;;;;481380;246;1026;-75
2021/12/06 11:11:45;;;;;;;;;;;19.80;31.80;;;;;;481437;246;1288;-65
2021/12/06 11:13:46;;;;;;;;;;;20.00;31.70;;;;;;481391;246;1182;-62
2021/12/06 11:15:48;;;;;;;;;;;20.80;30.40;;;;;;481259;246;2185;-63
2021/12/06 11:17:49;;;;;;;;;;;21.10;30.00;;;;;;481281;246;1563;-63
2021/12/06 11:19:52;;;;;;;;;;;21.20;30.00;;;;;;481305;246;1055;-65
2021/12/06 11:21:52;;;;;;;;;;;21.30;29.90;;;;;;481753;246;1984;-61
2021/12/06 11:23:54;;;;;;;;;;;21.30;29.90;;;;;;481539;246;1065;-59
2021/12/06 11:25:55;;;;;;;;;;;21.30;30.00;;;;;;481410;246;1289;-59
2021/12/06 11:27:56;;;;;;;;;;;21.30;29.90;;;;;;481443;246;1634;-61
2021/12/06 11:30:00;;;;;;;;;;;21.30;29.90;;;;;;481413;246;1156;-76
2021/12/06 11:31:59;;;;;;;;;;;21.20;29.90;;;;;;481569;246;1427;-75
2021/12/06 11:34:00;;;;;;;;;;;20.50;30.60;;;;;;481462;246;1003;-75
2021/12/06 11:36:02;;;;;;;;;;;20.00;31.40;;;;;;481305;246;2281;-75
2021/12/06 11:38:04;;;;;;;;;;;19.70;31.90;;;;;;481269;246;1081;-75
2021/12/06 11:40:04;;;;;;;;;;;19.50;32.10;;;;;;481210;246;1341;-75
2021/12/06 11:42:06;;;;;;;;;;;19.50;32.30;;;;;;481535;246;1190;-75
2021/12/06 11:44:07;;;;;;;;;;;19.50;32.30;;;;;;481449;246;972;-75
2021/12/06 11:46:10;;;;;;;;;;;19.50;32.30;;;;;;481412;246;1210;-75
2021/12/06 11:48:10;;;;;;;;;;;19.60;32.20;;;;;;481553;246;1367;-75
2021/12/06 11:50:11;;;;;;;;;;;19.60;32.20;;;;;;481525;246;1007;-75
2021/12/06 11:52:12;;;;;;;;;;;19.60;32.10;;;;;;481370;246;1206;-75
2021/12/06 11:54:14;;;;;;;;;;;19.60;32.20;;;;;;481572;246;1062;-75
2021/12/06 11:56:15;;;;;;;;;;;19.60;32.20;;;;;;481252;246;2191;-75
2021/12/06 11:58:16;;;;;;;;;;;19.60;32.20;;;;;;481465;246;1191;-75
2021/12/06 12:00:18;;;;;;;;;;;19.60;32.10;;;;;;481333;246;1165;-75
2021/12/06 12:02:19;;;;;;;;;;;19.50;32.10;;;;;;481270;246;1054;-75